createdAt,value
2022-09-11T00:01:14.207Z,76.22
2022-09-11T00:03:15.550Z,76.16
2022-09-11T00:05:17.038Z,76.02
2022-09-11T00:07:18.347Z,76.42
2022-09-11T00:09:19.669Z,76.55
2022-09-11T00:11:20.971Z,76.05
2022-09-11T00:13:22.380Z,76.11
2022-09-11T00:15:23.669Z,76.43
2022-09-11T00:17:24.966Z,76.75
2022-09-11T00:19:28.169Z,76.20
2022-09-11T00:21:29.595Z,76.37
2022-09-11T00:23:30.914Z,76.53
2022-09-11T00:25:32.513Z,76.42
2022-09-11T00:27:33.810Z,76.26
2022-09-11T00:29:35.683Z,76.47
2022-09-11T00:31:37.091Z,76.78
2022-09-11T00:33:38.602Z,76.61
2022-09-11T00:35:40.043Z,76.38
2022-09-11T00:37:41.331Z,76.56
2022-09-11T00:39:43.012Z,76.89
2022-09-11T00:41:45.049Z,76.60
2022-09-11T00:43:46.331Z,76.66
2022-09-11T00:45:47.666Z,76.89
2022-09-11T00:47:48.966Z,76.69
2022-09-11T00:49:51.122Z,77.38
2022-09-11T00:51:53.441Z,77.12
2022-09-11T00:53:54.747Z,76.92
2022-09-11T00:55:56.011Z,76.98
2022-09-11T00:57:57.330Z,76.81
2022-09-11T00:59:58.942Z,77.17
2022-09-11T01:02:00.713Z,77.43
2022-09-11T01:04:02.034Z,77.03
2022-09-11T01:06:03.334Z,77.79
2022-09-11T01:08:04.719Z,77.52
2022-09-11T01:10:06.051Z,77.49
2022-09-11T01:12:07.592Z,77.59
2022-09-11T01:14:08.869Z,77.78
2022-09-11T01:16:10.253Z,77.65
2022-09-11T01:18:12.646Z,77.55
2022-09-11T01:20:13.923Z,77.49
2022-09-11T01:22:15.198Z,77.67
2022-09-11T01:24:16.483Z,77.95
2022-09-11T01:26:18.857Z,78.11
2022-09-11T01:28:20.154Z,78.03
2022-09-11T01:30:21.436Z,78.24
2022-09-11T01:32:22.763Z,78.53
2022-09-11T01:34:24.064Z,79.24
2022-09-11T01:36:25.339Z,79.27
2022-09-11T01:38:26.846Z,78.94
2022-09-11T01:40:28.109Z,78.47
2022-09-11T01:42:31.567Z,78.80
2022-09-11T01:44:32.835Z,78.34
2022-09-11T01:46:35.242Z,78.35
2022-09-11T01:48:39.013Z,78.41
2022-09-11T01:50:40.298Z,78.62
2022-09-11T01:52:41.569Z,78.43
2022-09-11T01:54:42.826Z,78.37
2022-09-11T01:56:45.007Z,78.03
2022-09-11T01:58:46.316Z,78.29
2022-09-11T02:00:49.889Z,78.83
2022-09-11T02:02:52.111Z,78.60
2022-09-11T02:04:53.410Z,78.28
2022-09-11T02:06:54.675Z,78.68
2022-09-11T02:08:56.002Z,78.69
2022-09-11T02:10:57.258Z,78.50
2022-09-11T02:12:58.513Z,78.05
2022-09-11T02:14:59.852Z,78.85
2022-09-11T02:17:01.134Z,78.50
2022-09-11T02:19:02.468Z,76.86
2022-09-11T02:21:03.752Z,78.28
2022-09-11T02:23:06.328Z,77.86
2022-09-11T02:25:07.758Z,78.06
2022-09-11T02:27:09.143Z,78.15
2022-09-11T02:29:10.417Z,78.62
2022-09-11T02:33:13.304Z,78.26
2022-09-11T02:35:16.296Z,78.66
2022-09-11T02:37:18.216Z,78.32
2022-09-11T02:39:19.475Z,78.43
2022-09-11T02:41:20.743Z,78.54
2022-09-11T02:43:22.675Z,78.17
2022-09-11T02:45:23.998Z,78.12
2022-09-11T02:47:25.299Z,78.45
2022-09-11T02:49:26.621Z,78.27
2022-09-11T02:51:28.952Z,78.31
2022-09-11T02:53:30.274Z,78.35
2022-09-11T02:55:31.845Z,78.75
2022-09-11T02:57:33.121Z,78.28
2022-09-11T02:59:34.421Z,78.94
2022-09-11T03:01:35.717Z,78.37
2022-09-11T03:03:37.067Z,78.55
2022-09-11T03:05:40.324Z,78.82
2022-09-11T03:07:41.591Z,78.92
2022-09-11T03:09:43.290Z,78.59
2022-09-11T03:11:45.408Z,78.68
2022-09-11T03:13:46.763Z,78.68
2022-09-11T03:15:48.155Z,79.24
2022-09-11T03:17:49.507Z,78.71
2022-09-11T03:19:50.831Z,78.78
2022-09-11T03:21:52.149Z,79.26
2022-09-11T03:23:53.446Z,79.29
2022-09-11T03:25:55.572Z,79.50
2022-09-11T03:27:56.910Z,79.06
2022-09-11T03:29:58.654Z,79.33
2022-09-11T03:32:00.016Z,79.54
2022-09-11T03:34:01.342Z,79.52
2022-09-11T03:36:03.413Z,79.38
2022-09-11T03:38:04.699Z,79.05
2022-09-11T03:40:06.106Z,79.44
2022-09-11T03:42:07.435Z,78.92
2022-09-11T03:44:08.703Z,79.33
2022-09-11T03:46:10.282Z,78.74
2022-09-11T03:48:11.605Z,78.86
2022-09-11T03:50:12.880Z,79.32
2022-09-11T03:52:14.185Z,79.35
2022-09-11T03:54:18.546Z,79.01
2022-09-11T03:56:21.102Z,79.35
2022-09-11T03:58:22.415Z,78.77
2022-09-11T04:00:23.685Z,78.96
2022-09-11T04:02:24.951Z,79.40
2022-09-11T04:04:26.275Z,78.98
2022-09-11T04:06:27.631Z,79.51
2022-09-11T04:08:33.526Z,79.31
2022-09-11T04:10:35.409Z,79.44
2022-09-11T04:12:36.687Z,79.43
2022-09-11T04:14:38.000Z,79.01
2022-09-11T04:16:39.360Z,79.44
2022-09-11T04:18:40.932Z,79.96
2022-09-11T04:20:42.211Z,79.68
2022-09-11T04:22:43.502Z,79.14
2022-09-11T04:24:44.878Z,79.10
2022-09-11T04:26:46.190Z,79.83
2022-09-11T04:28:47.464Z,79.03
2022-09-11T04:30:48.810Z,79.18
2022-09-11T04:32:50.373Z,79.45
2022-09-11T04:34:51.707Z,79.76
2022-09-11T04:36:55.382Z,79.71
2022-09-11T04:38:56.848Z,79.35
2022-09-11T04:40:58.667Z,79.48
2022-09-11T04:43:01.018Z,79.25
2022-09-11T04:45:02.456Z,79.43
2022-09-11T04:47:03.746Z,79.70
2022-09-11T04:49:05.061Z,79.27
2022-09-11T04:51:06.381Z,79.39
2022-09-11T04:53:07.671Z,79.38
2022-09-11T04:55:08.946Z,79.16
2022-09-11T04:57:10.314Z,80.05
2022-09-11T04:59:13.529Z,79.67
2022-09-11T05:01:14.888Z,79.95
2022-09-11T05:03:16.195Z,79.31
2022-09-11T05:05:17.933Z,79.39
2022-09-11T05:07:19.290Z,79.47
2022-09-11T05:09:20.589Z,79.64
2022-09-11T05:11:21.926Z,79.57
2022-09-11T05:13:23.559Z,79.53
2022-09-11T05:15:24.884Z,79.79
2022-09-11T05:17:26.174Z,79.78
2022-09-11T05:19:27.430Z,79.37
2022-09-11T05:21:28.798Z,79.43
2022-09-11T05:23:30.292Z,79.38
2022-09-11T05:25:31.928Z,79.58
2022-09-11T05:27:33.257Z,79.75
2022-09-11T05:29:34.517Z,79.83
2022-09-11T05:31:37.249Z,79.20
2022-09-11T05:33:38.688Z,79.70
2022-09-11T05:35:40.822Z,79.78
2022-09-11T05:37:42.140Z,79.88
2022-09-11T05:39:43.493Z,79.99
2022-09-11T05:41:44.910Z,79.42
2022-09-11T05:43:46.180Z,79.68
2022-09-11T05:45:47.946Z,79.77
2022-09-11T05:47:53.099Z,80.02
2022-09-11T05:49:56.663Z,80.43
2022-09-11T05:51:58.042Z,80.27
2022-09-11T05:53:59.326Z,79.98
2022-09-11T05:56:00.594Z,80.52
2022-09-11T05:58:02.144Z,80.00
2022-09-11T06:00:04.025Z,80.35
2022-09-11T06:02:05.639Z,80.04
2022-09-11T06:04:07.223Z,80.13
2022-09-11T06:06:08.478Z,79.84
2022-09-11T06:08:09.795Z,79.70
2022-09-11T06:10:11.299Z,80.16
2022-09-11T06:12:12.784Z,79.97
2022-09-11T06:14:14.101Z,80.24
2022-09-11T06:16:18.394Z,80.10
2022-09-11T06:18:20.094Z,80.04
2022-09-11T06:20:21.393Z,80.08
2022-09-11T06:22:23.165Z,80.23
2022-09-11T06:24:24.458Z,80.61
2022-09-11T06:26:25.751Z,80.47
2022-09-11T06:28:27.087Z,80.39
2022-09-11T06:30:28.444Z,80.10
2022-09-11T06:32:29.827Z,80.02
2022-09-11T06:34:31.893Z,80.38
2022-09-11T06:36:33.193Z,80.54
2022-09-11T06:38:34.471Z,79.76
2022-09-11T06:40:35.747Z,79.53
2022-09-11T06:42:37.039Z,79.43
2022-09-11T06:44:38.311Z,79.91
2022-09-11T06:46:40.327Z,79.61
2022-09-11T06:48:41.627Z,80.07
2022-09-11T06:50:42.994Z,79.63
2022-09-11T06:52:45.049Z,80.02
2022-09-11T06:54:46.310Z,79.91
2022-09-11T06:56:47.606Z,80.04
2022-09-11T06:58:50.299Z,79.86
2022-09-11T07:00:51.591Z,79.72
2022-09-11T07:02:56.967Z,80.33
2022-09-11T07:04:58.246Z,79.97
2022-09-11T07:06:59.570Z,79.69
2022-09-11T07:09:02.368Z,80.76
2022-09-11T07:11:04.716Z,79.71
2022-09-11T07:13:05.966Z,79.44
2022-09-11T07:15:07.293Z,79.46
2022-09-11T07:17:08.557Z,79.22
2022-09-11T07:19:10.450Z,79.09
2022-09-11T07:21:11.726Z,79.16
2022-09-11T07:23:13.042Z,79.13
2022-09-11T07:25:14.779Z,79.10
2022-09-11T07:27:16.669Z,78.86
2022-09-11T07:29:18.474Z,78.74
2022-09-11T07:31:21.051Z,78.91
2022-09-11T07:33:23.062Z,79.02
2022-09-11T07:35:24.356Z,78.54
2022-09-11T07:37:25.626Z,78.72
2022-09-11T07:39:26.905Z,78.26
2022-09-11T07:41:28.395Z,78.13
2022-09-11T07:43:29.695Z,76.71
2022-09-11T07:45:32.086Z,75.74
2022-09-11T07:47:34.587Z,76.60
2022-09-11T07:49:35.846Z,76.93
2022-09-11T07:51:37.130Z,76.07
2022-09-11T07:53:38.924Z,73.94
2022-09-11T07:55:40.255Z,73.39
2022-09-11T07:57:41.578Z,74.05
2022-09-11T07:59:42.862Z,73.77
2022-09-11T08:01:44.130Z,74.09
2022-09-11T08:03:45.458Z,75.10
2022-09-11T08:05:46.722Z,73.64
2022-09-11T08:07:48.047Z,74.02
2022-09-11T08:10:04.445Z,74.43
2022-09-11T08:12:11.181Z,74.44
2022-09-11T08:14:13.768Z,74.34
2022-09-11T08:16:15.102Z,73.03
2022-09-11T08:18:16.452Z,73.79
2022-09-11T08:20:17.981Z,74.31
2022-09-11T08:22:19.729Z,73.70
2022-09-11T08:24:21.439Z,74.38
2022-09-11T08:26:22.828Z,73.77
2022-09-11T08:28:24.179Z,73.93
2022-09-11T08:30:25.457Z,74.18
2022-09-11T08:32:26.771Z,74.26
2022-09-11T08:34:28.097Z,73.27
2022-09-11T08:36:29.847Z,73.71
2022-09-11T08:38:31.178Z,73.33
2022-09-11T08:40:32.510Z,74.89
2022-09-11T08:42:34.352Z,76.02
2022-09-11T08:44:39.074Z,76.36
2022-09-11T08:46:40.573Z,76.78
2022-09-11T08:48:42.206Z,76.81
2022-09-11T08:50:43.524Z,76.98
2022-09-11T08:52:44.817Z,76.99
2022-09-11T08:54:46.113Z,76.93
2022-09-11T08:56:48.179Z,77.04
2022-09-11T08:58:49.840Z,76.79
2022-09-11T09:00:51.285Z,77.17
2022-09-11T09:02:52.703Z,77.10
2022-09-11T09:04:53.995Z,76.97
2022-09-11T09:06:55.495Z,77.23
2022-09-11T09:08:56.772Z,76.93
2022-09-11T09:10:58.274Z,76.81
2022-09-11T09:12:59.557Z,77.19
2022-09-11T09:15:00.815Z,76.63
2022-09-11T09:17:02.128Z,77.23
2022-09-11T09:19:03.539Z,76.98
2022-09-11T09:21:04.798Z,76.96
2022-09-11T09:23:06.132Z,76.86
2022-09-11T09:25:07.409Z,77.21
2022-09-11T09:27:08.764Z,76.83
2022-09-11T09:29:10.042Z,77.17
2022-09-11T09:31:11.369Z,76.87
2022-09-11T09:33:13.355Z,76.89
2022-09-11T09:35:15.396Z,77.09
2022-09-11T09:37:17.538Z,76.59
2022-09-11T09:39:18.825Z,76.71
2022-09-11T09:41:20.099Z,76.62
2022-09-11T09:43:21.373Z,76.92
2022-09-11T09:45:24.486Z,76.81
2022-09-11T09:47:26.747Z,76.81
2022-09-11T09:49:28.043Z,76.70
2022-09-11T09:51:29.322Z,76.53
2022-09-11T09:53:30.667Z,76.60
2022-09-11T09:55:32.000Z,76.51
2022-09-11T09:57:33.279Z,76.42
2022-09-11T09:59:34.835Z,76.86
2022-09-11T10:01:38.076Z,76.78
2022-09-11T10:03:39.459Z,76.62
2022-09-11T10:05:40.741Z,76.59
2022-09-11T10:07:42.000Z,76.51
2022-09-11T10:09:43.315Z,76.27
2022-09-11T10:11:46.720Z,76.18
2022-09-11T10:13:47.995Z,76.43
2022-09-11T10:15:49.382Z,76.11
2022-09-11T10:17:51.591Z,76.22
2022-09-11T10:19:52.895Z,76.48
2022-09-11T10:21:54.190Z,76.67
2022-09-11T10:23:55.622Z,76.25
2022-09-11T10:25:56.984Z,76.26
2022-09-11T10:27:59.133Z,76.05
2022-09-11T10:30:00.531Z,75.88
2022-09-11T10:32:02.543Z,75.96
2022-09-11T10:34:03.882Z,75.79
2022-09-11T10:36:05.456Z,76.04
2022-09-11T10:38:06.754Z,75.81
2022-09-11T10:40:08.844Z,75.82
2022-09-11T10:42:10.607Z,75.80
2022-09-11T10:44:11.882Z,75.97
2022-09-11T10:46:13.574Z,76.05
2022-09-11T10:48:14.930Z,76.21
2022-09-11T10:50:16.244Z,76.04
2022-09-11T10:52:18.816Z,76.03
2022-09-11T10:54:20.154Z,76.40
2022-09-11T10:56:21.435Z,76.30
2022-09-11T10:58:23.307Z,76.44
2022-09-11T11:00:24.584Z,76.41
2022-09-11T11:02:25.884Z,76.07
2022-09-11T11:04:27.246Z,76.35
2022-09-11T11:06:28.577Z,76.13
2022-09-11T11:08:30.135Z,76.13
2022-09-11T11:10:32.454Z,76.52
2022-09-11T11:12:33.777Z,76.37
2022-09-11T11:14:35.267Z,76.28
2022-09-11T11:16:36.606Z,76.22
2022-09-11T11:18:37.880Z,76.69
2022-09-11T11:20:39.169Z,76.17
2022-09-11T11:22:40.919Z,76.20
2022-09-11T11:24:42.195Z,76.58
2022-09-11T11:26:43.670Z,76.18
2022-09-11T11:28:44.947Z,76.32
2022-09-11T11:30:46.321Z,76.56
2022-09-11T11:32:48.245Z,76.10
2022-09-11T11:34:51.285Z,76.14
2022-09-11T11:36:52.571Z,76.59
2022-09-11T11:39:00.243Z,76.17
2022-09-11T11:41:03.142Z,76.45
2022-09-11T11:43:04.491Z,76.64
2022-09-11T11:45:05.758Z,75.44
2022-09-11T11:47:07.050Z,76.10
2022-09-11T11:49:08.321Z,75.86
2022-09-11T11:51:09.734Z,75.75
2022-09-11T11:53:12.328Z,75.94
2022-09-11T11:55:13.593Z,75.51
2022-09-11T11:57:16.795Z,75.90
2022-09-11T11:59:18.182Z,75.48
2022-09-11T12:01:19.507Z,75.34
2022-09-11T12:03:21.948Z,75.52
2022-09-11T12:05:26.372Z,75.65
2022-09-11T12:07:27.664Z,75.53
2022-09-11T12:09:33.800Z,75.43
2022-09-11T12:11:35.375Z,75.26
2022-09-11T12:13:36.687Z,72.78
2022-09-11T12:15:38.500Z,72.87
2022-09-11T12:17:43.927Z,72.50
2022-09-11T12:19:47.872Z,73.08
2022-09-11T12:21:49.178Z,72.96
2022-09-11T12:23:51.116Z,72.58
2022-09-11T12:25:53.668Z,72.39
2022-09-11T12:27:55.842Z,72.19
2022-09-11T12:29:57.168Z,71.78
2022-09-11T12:31:58.486Z,71.59
2022-09-11T12:33:59.816Z,70.89
2022-09-11T12:36:01.119Z,72.81
2022-09-11T12:38:02.661Z,71.74
2022-09-11T12:40:03.998Z,71.09
2022-09-11T12:42:06.412Z,71.25
2022-09-11T12:44:08.014Z,70.70
2022-09-11T12:46:09.333Z,70.64
2022-09-11T12:48:10.714Z,70.69
2022-09-11T12:50:12.210Z,70.88
2022-09-11T12:52:13.991Z,70.53
2022-09-11T12:54:15.331Z,71.29
2022-09-11T12:56:16.617Z,71.12
2022-09-11T12:58:18.878Z,70.44
2022-09-11T13:00:20.316Z,70.83
2022-09-11T13:02:21.614Z,71.17
2022-09-11T13:04:22.998Z,71.14
2022-09-11T13:06:24.295Z,72.03
2022-09-11T13:08:26.250Z,73.44
2022-09-11T13:10:28.799Z,73.88
2022-09-11T13:12:30.109Z,74.24
2022-09-11T13:14:31.439Z,74.37
2022-09-11T13:16:34.930Z,74.94
2022-09-11T13:18:36.264Z,74.80
2022-09-11T13:20:38.006Z,75.14
2022-09-11T13:22:39.340Z,75.29
2022-09-11T13:24:40.622Z,75.77
2022-09-11T13:26:42.122Z,75.52
2022-09-11T13:28:43.433Z,75.66
2022-09-11T13:30:44.799Z,75.70
2022-09-11T13:32:47.306Z,76.11
2022-09-11T13:34:48.605Z,76.15
2022-09-11T13:36:54.596Z,76.20
2022-09-11T13:38:57.703Z,76.58
2022-09-11T13:40:59.067Z,76.40
2022-09-11T13:43:00.357Z,76.07
2022-09-11T13:45:01.936Z,75.89
2022-09-11T13:47:06.388Z,75.77
2022-09-11T13:49:07.675Z,75.39
2022-09-11T13:51:08.946Z,74.93
2022-09-11T13:53:10.234Z,75.15
2022-09-11T13:55:11.567Z,74.79
2022-09-11T13:57:13.027Z,74.68
2022-09-11T13:59:15.470Z,74.04
2022-09-11T14:01:16.927Z,74.56
2022-09-11T14:03:18.449Z,75.20
2022-09-11T14:07:24.115Z,75.05
2022-09-11T14:09:25.414Z,74.89
2022-09-11T14:11:27.134Z,74.88
2022-09-11T14:13:28.407Z,75.16
2022-09-11T14:15:29.982Z,75.20
2022-09-11T14:17:31.295Z,75.45
2022-09-11T14:19:32.635Z,75.60
2022-09-11T14:21:33.903Z,75.94
2022-09-11T14:23:35.214Z,75.96
2022-09-11T14:25:36.530Z,76.49
2022-09-11T14:27:38.021Z,76.68
2022-09-11T14:29:39.298Z,76.59
2022-09-11T14:31:40.603Z,77.00
2022-09-11T14:33:42.083Z,77.10
2022-09-11T14:35:43.411Z,77.16
2022-09-11T14:37:45.712Z,77.38
2022-09-11T14:39:47.420Z,76.78
2022-09-11T14:41:48.739Z,76.67
2022-09-11T14:43:50.347Z,77.08
2022-09-11T14:45:52.470Z,77.18
2022-09-11T14:47:53.734Z,77.39
2022-09-11T14:49:54.988Z,77.16
2022-09-11T14:51:58.242Z,77.38
2022-09-11T14:53:59.535Z,77.64
2022-09-11T14:56:00.830Z,74.35
2022-09-11T14:58:03.280Z,70.29
2022-09-11T15:00:04.548Z,69.01
2022-09-11T15:02:05.840Z,68.43
2022-09-11T15:04:07.124Z,67.91
2022-09-11T15:06:08.461Z,67.16
2022-09-11T15:08:09.739Z,67.44
2022-09-11T15:10:11.035Z,68.76
2022-09-11T15:12:12.302Z,70.17
2022-09-11T15:14:23.677Z,71.09
2022-09-11T15:16:29.062Z,70.00
2022-09-11T15:18:30.330Z,68.55
2022-09-11T15:20:32.086Z,68.60
2022-09-11T15:22:33.374Z,68.59
2022-09-11T15:24:35.063Z,68.76
2022-09-11T15:26:37.341Z,69.30
2022-09-11T15:28:39.039Z,69.26
2022-09-11T15:30:40.527Z,69.20
2022-09-11T15:32:41.823Z,69.38
2022-09-11T15:34:45.307Z,69.95
2022-09-11T15:36:46.564Z,70.97
2022-09-11T15:38:48.035Z,71.52
2022-09-11T15:40:49.296Z,71.24
2022-09-11T15:42:50.698Z,70.62
2022-09-11T15:44:53.030Z,70.18
2022-09-11T15:46:54.298Z,69.91
2022-09-11T15:48:55.583Z,70.14
2022-09-11T15:50:56.863Z,70.59
2022-09-11T15:52:58.135Z,71.04
2022-09-11T15:54:59.470Z,72.21
2022-09-11T15:57:00.785Z,72.47
2022-09-11T15:59:02.063Z,72.57
2022-09-11T16:01:03.598Z,72.80
2022-09-11T16:03:04.911Z,72.81
2022-09-11T16:05:06.188Z,71.44
2022-09-11T16:07:07.523Z,70.26
2022-09-11T16:09:08.839Z,70.31
2022-09-11T16:11:11.411Z,70.18
2022-09-11T16:13:13.186Z,70.22
2022-09-11T16:15:14.506Z,68.99
2022-09-11T16:17:19.393Z,68.73
2022-09-11T16:19:20.660Z,69.10
2022-09-11T16:21:23.217Z,69.02
2022-09-11T16:23:25.630Z,69.48
2022-09-11T16:25:27.991Z,69.61
2022-09-11T16:27:29.331Z,70.27
2022-09-11T16:29:44.275Z,70.88
2022-09-11T16:31:51.938Z,69.92
2022-09-11T16:33:56.914Z,68.25
2022-09-11T16:35:58.491Z,69.49
2022-09-11T16:38:00.763Z,69.47
2022-09-11T16:40:02.660Z,69.22
2022-09-11T16:42:04.183Z,68.41
2022-09-11T16:44:05.480Z,68.98
2022-09-11T16:46:06.878Z,68.91
2022-09-11T16:48:09.758Z,69.59
2022-09-11T16:50:11.078Z,69.28
2022-09-11T16:52:12.475Z,69.89
2022-09-11T16:54:13.803Z,70.26
2022-09-11T16:56:15.138Z,70.16
2022-09-11T16:58:16.549Z,69.24
2022-09-11T17:00:17.833Z,69.82
2022-09-11T17:02:19.157Z,69.72
2022-09-11T17:04:20.458Z,70.68
2022-09-11T17:06:21.782Z,70.24
2022-09-11T17:08:23.107Z,70.48
2022-09-11T17:10:24.442Z,70.57
2022-09-11T17:12:25.754Z,71.88
2022-09-11T17:14:29.421Z,72.04
2022-09-11T17:16:32.246Z,72.12
2022-09-11T17:18:33.614Z,71.26
2022-09-11T17:20:34.883Z,71.13
2022-09-11T17:22:37.422Z,70.39
2022-09-11T17:24:39.620Z,70.19
2022-09-11T17:26:40.994Z,70.77
2022-09-11T17:28:42.375Z,69.88
2022-09-11T17:30:44.403Z,70.18
2022-09-11T17:32:45.686Z,70.58
2022-09-11T17:34:47.456Z,70.35
2022-09-11T17:36:49.272Z,71.15
2022-09-11T17:38:50.615Z,71.74
2022-09-11T17:40:51.879Z,72.04
2022-09-11T17:42:53.138Z,71.11
2022-09-11T17:44:54.419Z,71.70
2022-09-11T17:47:00.051Z,71.24
2022-09-11T17:49:02.030Z,71.04
2022-09-11T17:51:03.359Z,71.92
2022-09-11T17:53:06.011Z,71.37
2022-09-11T17:55:07.316Z,70.50
2022-09-11T17:57:08.620Z,71.47
2022-09-11T17:59:10.855Z,71.34
2022-09-11T18:01:16.590Z,71.46
2022-09-11T18:03:22.648Z,71.39
2022-09-11T18:05:23.984Z,71.32
2022-09-11T18:07:25.306Z,71.36
2022-09-11T18:09:26.635Z,71.65
2022-09-11T18:11:27.939Z,71.80
2022-09-11T18:13:29.212Z,71.13
2022-09-11T18:15:30.546Z,71.22
2022-09-11T18:17:32.179Z,71.36
2022-09-11T18:19:33.479Z,71.53
2022-09-11T18:21:38.263Z,71.39
2022-09-11T18:23:39.876Z,71.19
2022-09-11T18:25:41.192Z,71.66
2022-09-11T18:27:44.053Z,72.39
2022-09-11T18:29:45.448Z,71.59
2022-09-11T18:31:46.795Z,71.54
2022-09-11T18:33:48.137Z,71.72
2022-09-11T18:35:50.062Z,71.44
2022-09-11T18:37:51.355Z,70.99
2022-09-11T18:39:54.027Z,70.83
2022-09-11T18:41:55.435Z,71.51
2022-09-11T18:43:56.792Z,71.07
2022-09-11T18:45:59.918Z,70.95
2022-09-11T18:48:01.283Z,71.29
2022-09-11T18:50:04.110Z,70.80
2022-09-11T18:52:05.643Z,70.71
2022-09-11T18:54:08.918Z,71.03
2022-09-11T18:56:11.518Z,71.30
2022-09-11T18:58:13.034Z,71.74
2022-09-11T19:00:15.723Z,71.79
2022-09-11T19:02:17.504Z,71.26
2022-09-11T19:04:20.246Z,71.76
2022-09-11T19:06:21.567Z,73.05
2022-09-11T19:08:22.885Z,72.49
2022-09-11T19:10:24.172Z,72.41
2022-09-11T19:12:26.199Z,72.02
2022-09-11T19:14:27.897Z,72.40
2022-09-11T19:16:29.183Z,71.97
2022-09-11T19:18:31.526Z,71.91
2022-09-11T19:20:33.058Z,71.82
2022-09-11T19:22:35.461Z,72.24
2022-09-11T19:24:36.777Z,71.56
2022-09-11T19:26:41.388Z,71.69
2022-09-11T19:28:42.734Z,72.48
2022-09-11T19:30:44.136Z,72.37
2022-09-11T19:32:45.404Z,72.04
2022-09-11T19:34:54.722Z,72.56
2022-09-11T19:36:56.058Z,72.55
2022-09-11T19:39:00.473Z,72.44
2022-09-11T19:41:02.199Z,72.25
2022-09-11T19:43:03.794Z,71.51
2022-09-11T19:45:05.900Z,71.88
2022-09-11T19:47:07.207Z,72.41
2022-09-11T19:49:08.941Z,71.90
2022-09-11T19:51:10.220Z,71.88
2022-09-11T19:53:11.571Z,71.95
2022-09-11T19:55:12.858Z,71.20
2022-09-11T19:57:14.190Z,72.32
2022-09-11T19:59:15.615Z,72.11
2022-09-11T20:01:16.889Z,71.50
2022-09-11T20:03:18.183Z,72.26
2022-09-11T20:05:19.503Z,72.10
2022-09-11T20:07:21.085Z,71.93
2022-09-11T20:09:37.748Z,72.04
2022-09-11T20:11:39.083Z,72.24
2022-09-11T20:13:40.387Z,72.22
2022-09-11T20:15:41.893Z,72.03
2022-09-11T20:17:44.827Z,72.03
2022-09-11T20:19:46.102Z,72.60
2022-09-11T20:21:47.415Z,72.34
2022-09-11T20:23:48.746Z,71.82
2022-09-11T20:25:50.240Z,71.69
2022-09-11T20:27:51.843Z,72.26
2022-09-11T20:29:53.120Z,72.39
2022-09-11T20:31:55.890Z,72.34
2022-09-11T20:33:57.247Z,72.53
2022-09-11T20:36:00.403Z,71.16
2022-09-11T20:38:01.886Z,71.93
2022-09-11T20:40:03.831Z,68.77
2022-09-11T20:42:05.127Z,68.36
2022-09-11T20:44:06.413Z,70.01
2022-09-11T20:46:07.722Z,70.99
2022-09-11T20:48:09.005Z,71.71
2022-09-11T20:50:10.326Z,72.19
2022-09-11T20:52:11.677Z,72.45
2022-09-11T20:54:12.966Z,72.85
2022-09-11T20:56:14.279Z,73.05
2022-09-11T20:58:15.784Z,73.27
2022-09-11T21:00:17.056Z,73.44
2022-09-11T21:02:19.120Z,73.75
2022-09-11T21:04:20.454Z,73.76
2022-09-11T21:06:25.531Z,73.73
2022-09-11T21:08:27.499Z,73.74
2022-09-11T21:10:28.821Z,73.96
2022-09-11T21:12:30.099Z,73.70
2022-09-11T21:14:31.412Z,74.12
2022-09-11T21:16:32.814Z,74.34
2022-09-11T21:18:34.118Z,74.28
2022-09-11T21:20:35.459Z,74.47
2022-09-11T21:22:36.738Z,74.47
2022-09-11T21:24:38.042Z,74.56
2022-09-11T21:26:39.366Z,74.67
2022-09-11T21:28:40.690Z,74.66
2022-09-11T21:30:41.973Z,74.61
2022-09-11T21:32:43.284Z,75.23
2022-09-11T21:34:44.559Z,74.78
2022-09-11T21:36:45.826Z,75.22
2022-09-11T21:38:47.163Z,75.08
2022-09-11T21:40:48.469Z,74.99
2022-09-11T21:42:49.743Z,75.39
2022-09-11T21:44:51.051Z,75.63
2022-09-11T21:46:52.414Z,75.46
2022-09-11T21:48:53.773Z,75.73
2022-09-11T21:50:55.039Z,75.79
2022-09-11T21:52:56.319Z,75.23
2022-09-11T21:54:58.671Z,75.41
2022-09-11T21:57:00.003Z,75.50
2022-09-11T21:59:01.350Z,75.56
2022-09-11T22:01:05.833Z,75.48
2022-09-11T22:03:07.343Z,75.90
2022-09-11T22:05:08.938Z,75.66
2022-09-11T22:07:12.264Z,76.68
2022-09-11T22:09:13.573Z,76.56
2022-09-11T22:11:14.872Z,76.44
2022-09-11T22:13:16.199Z,76.13
2022-09-11T22:15:17.495Z,76.77
2022-09-11T22:17:18.762Z,76.40
2022-09-11T22:19:20.068Z,76.46
2022-09-11T22:21:21.331Z,76.49
2022-09-11T22:23:22.614Z,76.90
2022-09-11T22:25:23.932Z,76.84
2022-09-11T22:27:25.214Z,76.84
2022-09-11T22:29:26.498Z,76.66
2022-09-11T22:31:28.884Z,76.78
2022-09-11T22:33:30.219Z,76.81
2022-09-11T22:35:31.503Z,76.91
2022-09-11T22:37:32.801Z,76.51
2022-09-11T22:39:34.116Z,75.80
2022-09-11T22:41:35.741Z,75.97
2022-09-11T22:43:37.157Z,76.52
2022-09-11T22:45:38.593Z,76.44
2022-09-11T22:47:39.902Z,76.83
2022-09-11T22:49:41.170Z,76.79
2022-09-11T22:51:42.447Z,77.00
2022-09-11T22:53:43.990Z,76.83
2022-09-11T22:55:45.410Z,76.83
2022-09-11T22:57:46.679Z,77.13
2022-09-11T22:59:48.148Z,76.82
2022-09-11T23:01:49.460Z,76.98
2022-09-11T23:03:50.866Z,77.41
2022-09-11T23:06:10.875Z,77.19
2022-09-11T23:08:12.141Z,77.06
2022-09-11T23:10:13.570Z,77.34
2022-09-11T23:12:14.860Z,76.96
2022-09-11T23:14:16.178Z,77.28
2022-09-11T23:16:17.505Z,77.58
2022-09-11T23:18:18.868Z,77.27
2022-09-11T23:20:20.186Z,77.17
2022-09-11T23:22:21.666Z,77.38
2022-09-11T23:24:23.033Z,77.13
2022-09-11T23:26:24.333Z,77.26
2022-09-11T23:28:25.670Z,77.43
2022-09-11T23:30:27.004Z,77.82
2022-09-11T23:32:28.271Z,77.59
2022-09-11T23:34:29.795Z,77.67
2022-09-11T23:36:31.079Z,77.41
2022-09-11T23:38:32.415Z,77.69
2022-09-11T23:40:33.685Z,78.23
2022-09-11T23:42:34.941Z,78.42
2022-09-11T23:44:36.254Z,77.87
2022-09-11T23:46:38.236Z,78.39
2022-09-11T23:48:39.490Z,78.62
2022-09-11T23:50:41.817Z,78.16
2022-09-11T23:52:43.115Z,78.31
2022-09-11T23:54:44.407Z,78.65
2022-09-11T23:56:45.731Z,78.47
2022-09-11T23:58:47.118Z,78.17
